createdAt,value
2023-07-25T00:00:29.207Z,0.00
2023-07-25T00:01:30.509Z,0.00
2023-07-25T00:02:30.300Z,0.00
2023-07-25T00:03:30.187Z,0.00
2023-07-25T00:04:30.140Z,0.00
2023-07-25T00:05:30.101Z,0.00
2023-07-25T00:06:30.122Z,0.00
2023-07-25T00:07:30.107Z,0.00
2023-07-25T00:08:30.060Z,0.00
2023-07-25T00:09:30.096Z,0.00
2023-07-25T00:10:30.085Z,0.00
2023-07-25T00:11:30.397Z,0.00
2023-07-25T00:12:30.052Z,0.00
2023-07-25T00:13:30.041Z,0.00
2023-07-25T00:14:30.073Z,0.00
2023-07-25T00:15:30.008Z,0.00
2023-07-25T00:16:30.048Z,0.00
2023-07-25T00:17:30.026Z,0.00
2023-07-25T00:18:29.977Z,0.00
2023-07-25T00:19:29.998Z,0.00
2023-07-25T00:20:29.969Z,0.00
2023-07-25T00:21:30.379Z,0.00
2023-07-25T00:22:29.944Z,0.00
2023-07-25T00:23:29.912Z,0.00
2023-07-25T00:24:29.979Z,0.00
2023-07-25T00:25:29.959Z,0.00
2023-07-25T00:26:29.880Z,0.00
2023-07-25T00:27:29.878Z,0.00
2023-07-25T00:28:29.890Z,0.00
2023-07-25T00:29:29.870Z,0.00
2023-07-25T00:30:29.836Z,0.00
2023-07-25T00:31:30.092Z,0.00
2023-07-25T00:32:29.856Z,0.00
2023-07-25T00:33:29.812Z,0.00
2023-07-25T00:34:29.833Z,0.00
2023-07-25T00:35:29.793Z,0.00
2023-07-25T00:36:29.769Z,0.00
2023-07-25T00:37:29.773Z,0.00
2023-07-25T00:38:29.782Z,0.00
2023-07-25T00:39:29.727Z,0.00
2023-07-25T00:40:29.764Z,0.00
2023-07-25T00:41:30.146Z,0.00
2023-07-25T00:42:29.746Z,0.00
2023-07-25T00:43:29.687Z,0.00
2023-07-25T00:44:29.680Z,0.00
2023-07-25T00:45:29.680Z,0.00
2023-07-25T00:46:29.693Z,0.00
2023-07-25T00:47:29.668Z,0.00
2023-07-25T00:48:29.646Z,0.00
2023-07-25T00:49:29.633Z,0.00
2023-07-25T00:50:29.652Z,0.00
2023-07-25T00:51:30.042Z,0.00
2023-07-25T00:52:29.625Z,0.00
2023-07-25T00:53:29.602Z,0.00
2023-07-25T00:54:29.551Z,0.00
2023-07-25T00:55:29.578Z,0.00
2023-07-25T00:56:29.557Z,0.00
2023-07-25T00:57:29.521Z,0.00
2023-07-25T00:58:29.539Z,0.00
2023-07-25T00:59:29.511Z,0.00
2023-07-25T01:00:29.551Z,0.00
2023-07-25T01:01:29.957Z,0.00
2023-07-25T01:02:29.542Z,0.00
2023-07-25T01:03:29.586Z,0.00
2023-07-25T01:04:29.460Z,0.00
2023-07-25T01:05:29.468Z,0.00
2023-07-25T01:06:29.432Z,0.00
2023-07-25T01:07:29.448Z,0.00
2023-07-25T01:08:29.418Z,0.00
2023-07-25T01:09:29.393Z,0.00
2023-07-25T01:10:29.390Z,0.00
2023-07-25T01:11:29.556Z,0.00
2023-07-25T01:12:29.410Z,0.00
2023-07-25T01:13:29.371Z,0.00
2023-07-25T01:14:29.363Z,0.00
2023-07-25T01:15:29.330Z,0.00
2023-07-25T01:16:29.405Z,0.00
2023-07-25T01:17:29.335Z,0.00
2023-07-25T01:18:29.322Z,0.00
2023-07-25T01:19:29.327Z,0.00
2023-07-25T01:20:29.411Z,0.00
2023-07-25T01:21:29.568Z,0.00
2023-07-25T01:22:29.368Z,0.00
2023-07-25T01:23:29.239Z,0.00
2023-07-25T01:24:32.262Z,0.00
2023-07-25T01:25:29.235Z,0.00
2023-07-25T01:26:29.211Z,0.00
2023-07-25T01:27:29.237Z,0.00
2023-07-25T01:28:29.190Z,0.00
2023-07-25T01:29:29.189Z,0.00
2023-07-25T01:30:29.260Z,0.00
2023-07-25T01:31:29.645Z,0.00
2023-07-25T01:32:29.202Z,0.00
2023-07-25T01:33:29.158Z,0.00
2023-07-25T01:34:29.202Z,0.00
2023-07-25T01:35:29.187Z,0.00
2023-07-25T01:36:29.115Z,0.00
2023-07-25T01:37:29.094Z,0.00
2023-07-25T01:38:29.109Z,0.00
2023-07-25T01:39:29.076Z,0.00
2023-07-25T01:40:29.058Z,0.00
2023-07-25T01:41:29.431Z,0.00
2023-07-25T01:42:29.035Z,0.00
2023-07-25T01:43:29.091Z,0.00
2023-07-25T01:44:29.020Z,0.00
2023-07-25T01:45:29.058Z,0.00
2023-07-25T01:46:28.997Z,0.00
2023-07-25T01:47:29.018Z,0.00
2023-07-25T01:48:29.035Z,0.00
2023-07-25T01:49:29.017Z,0.00
2023-07-25T01:50:28.998Z,0.00
2023-07-25T01:51:29.182Z,0.00
2023-07-25T01:52:28.959Z,0.00
2023-07-25T01:53:28.947Z,0.00
2023-07-25T01:54:28.954Z,0.00
2023-07-25T01:55:28.913Z,0.00
2023-07-25T01:56:28.913Z,0.00
2023-07-25T01:57:28.922Z,0.00
2023-07-25T01:58:28.869Z,0.00
2023-07-25T01:59:28.885Z,0.00
2023-07-25T02:00:28.879Z,0.00
2023-07-25T02:01:28.910Z,0.00
2023-07-25T02:02:28.894Z,0.00
2023-07-25T02:03:28.892Z,0.00
2023-07-25T02:04:28.832Z,0.00
2023-07-25T02:05:28.828Z,0.00
2023-07-25T02:06:28.780Z,0.00
2023-07-25T02:07:28.790Z,0.00
2023-07-25T02:08:28.765Z,0.00
2023-07-25T02:09:28.736Z,0.00
2023-07-25T02:10:28.769Z,0.00
2023-07-25T02:11:29.057Z,0.00
2023-07-25T02:12:28.724Z,0.00
2023-07-25T02:13:28.716Z,0.00
2023-07-25T02:14:28.687Z,0.00
2023-07-25T02:15:28.697Z,0.00
2023-07-25T02:16:28.744Z,0.00
2023-07-25T02:17:28.769Z,0.00
2023-07-25T02:18:28.652Z,0.00
2023-07-25T02:19:28.662Z,0.00
2023-07-25T02:20:28.656Z,0.00
2023-07-25T02:21:28.991Z,0.00
2023-07-25T02:22:28.665Z,0.00
2023-07-25T02:23:28.616Z,0.00
2023-07-25T02:24:28.598Z,0.00
2023-07-25T02:25:28.599Z,0.00
2023-07-25T02:26:28.569Z,0.00
2023-07-25T02:27:28.573Z,0.00
2023-07-25T02:28:28.585Z,0.00
2023-07-25T02:29:28.583Z,0.00
2023-07-25T02:30:28.530Z,0.00
2023-07-25T02:31:28.501Z,0.00
2023-07-25T02:32:28.547Z,0.00
2023-07-25T02:33:28.506Z,0.00
2023-07-25T02:34:28.505Z,0.00
2023-07-25T02:35:28.487Z,0.00
2023-07-25T02:36:28.484Z,0.00
2023-07-25T02:37:28.523Z,0.00
2023-07-25T02:38:28.419Z,0.00
2023-07-25T02:39:28.416Z,0.00
2023-07-25T02:40:28.418Z,0.00
2023-07-25T02:41:28.402Z,0.00
2023-07-25T02:42:28.360Z,0.00
2023-07-25T02:43:28.349Z,0.00
2023-07-25T02:44:28.341Z,0.00
2023-07-25T02:45:28.339Z,0.00
2023-07-25T02:46:28.327Z,0.00
2023-07-25T02:47:28.328Z,0.00
2023-07-25T02:48:28.302Z,0.00
2023-07-25T02:49:28.293Z,0.00
2023-07-25T02:50:28.258Z,0.00
2023-07-25T02:51:28.282Z,0.00
2023-07-25T02:52:28.256Z,0.00
2023-07-25T02:53:28.257Z,0.00
2023-07-25T02:54:28.218Z,0.00
2023-07-25T02:55:28.230Z,0.00
2023-07-25T02:56:28.248Z,0.00
2023-07-25T02:57:28.190Z,0.00
2023-07-25T02:58:28.193Z,0.00
2023-07-25T02:59:28.165Z,0.00
2023-07-25T03:00:28.213Z,0.00
2023-07-25T03:01:28.171Z,0.00
2023-07-25T03:02:28.558Z,0.00
2023-07-25T03:03:28.175Z,0.00
2023-07-25T03:04:28.159Z,0.00
2023-07-25T03:05:28.118Z,0.00
2023-07-25T03:06:28.126Z,0.00
2023-07-25T03:07:28.125Z,0.00
2023-07-25T03:08:28.087Z,0.00
2023-07-25T03:09:28.037Z,0.00
2023-07-25T03:10:28.071Z,0.00
2023-07-25T03:11:28.047Z,0.00
2023-07-25T03:12:28.060Z,5.62
2023-07-25T03:13:27.998Z,5.62
2023-07-25T03:14:27.994Z,5.62
2023-07-25T03:15:28.007Z,5.62
2023-07-25T03:16:28.023Z,5.62
2023-07-25T03:17:28.010Z,5.62
2023-07-25T03:18:27.974Z,11.25
2023-07-25T03:19:27.957Z,11.25
2023-07-25T03:20:27.933Z,11.25
2023-07-25T03:21:27.928Z,11.25
2023-07-25T03:22:27.933Z,11.25
2023-07-25T03:23:27.912Z,16.88
2023-07-25T03:24:27.913Z,16.88
2023-07-25T03:25:27.912Z,16.88
2023-07-25T03:26:27.912Z,16.88
2023-07-25T03:27:27.897Z,16.88
2023-07-25T03:28:27.854Z,22.50
2023-07-25T03:29:27.841Z,22.50
2023-07-25T03:30:27.869Z,22.50
2023-07-25T03:31:27.842Z,22.50
2023-07-25T03:32:27.837Z,28.12
2023-07-25T03:33:27.803Z,28.12
2023-07-25T03:34:27.784Z,28.12
2023-07-25T03:35:27.802Z,28.12
2023-07-25T03:36:27.781Z,33.75
2023-07-25T03:37:27.757Z,33.75
2023-07-25T03:38:27.747Z,33.75
2023-07-25T03:39:27.765Z,33.75
2023-07-25T03:40:27.722Z,39.38
2023-07-25T03:41:27.718Z,39.38
2023-07-25T03:42:27.728Z,39.38
2023-07-25T03:43:27.705Z,45.00
2023-07-25T03:44:27.665Z,45.00
2023-07-25T03:45:27.666Z,50.62
2023-07-25T03:46:27.711Z,50.62
2023-07-25T03:47:27.716Z,56.25
2023-07-25T03:48:27.644Z,61.88
2023-07-25T03:49:27.603Z,78.75
2023-07-25T03:50:27.623Z,78.75
2023-07-25T03:51:27.652Z,84.38
2023-07-25T03:52:27.596Z,90.00
2023-07-25T03:53:27.607Z,95.62
2023-07-25T03:54:27.582Z,101.25
2023-07-25T03:55:27.559Z,101.25
2023-07-25T03:56:27.553Z,106.88
2023-07-25T03:57:27.539Z,112.50
2023-07-25T03:58:27.563Z,118.12
2023-07-25T03:59:27.527Z,118.12
2023-07-25T04:00:27.554Z,123.75
2023-07-25T04:01:27.521Z,129.38
2023-07-25T04:02:27.551Z,135.00
2023-07-25T04:03:27.784Z,140.62
2023-07-25T04:04:27.550Z,140.62
2023-07-25T04:05:27.455Z,146.25
2023-07-25T04:06:27.434Z,146.25
2023-07-25T04:07:27.423Z,151.88
2023-07-25T04:08:27.475Z,157.50
2023-07-25T04:09:27.422Z,168.75
2023-07-25T04:10:27.385Z,174.38
2023-07-25T04:11:27.399Z,174.38
2023-07-25T04:12:27.388Z,151.88
2023-07-25T04:13:27.348Z,185.62
2023-07-25T04:14:27.381Z,112.50
2023-07-25T04:15:27.339Z,180.00
2023-07-25T04:16:27.413Z,106.88
2023-07-25T04:17:27.335Z,129.38
2023-07-25T04:18:27.331Z,180.00
2023-07-25T04:19:27.293Z,151.88
2023-07-25T04:20:27.313Z,180.00
2023-07-25T04:21:27.294Z,129.38
2023-07-25T04:22:27.254Z,118.12
2023-07-25T04:23:27.266Z,118.12
2023-07-25T04:24:27.300Z,106.88
2023-07-25T04:25:27.273Z,101.25
2023-07-25T04:26:27.229Z,106.88
2023-07-25T04:27:27.199Z,123.75
2023-07-25T04:28:28.647Z,129.38
2023-07-25T04:29:27.206Z,129.38
2023-07-25T04:30:27.185Z,146.25
2023-07-25T04:31:27.186Z,163.12
2023-07-25T04:32:27.211Z,208.12
2023-07-25T04:33:27.153Z,168.75
2023-07-25T04:34:27.150Z,151.88
2023-07-25T04:35:27.172Z,146.25
2023-07-25T04:36:27.130Z,135.00
2023-07-25T04:37:27.114Z,135.00
2023-07-25T04:38:27.098Z,151.88
2023-07-25T04:39:27.116Z,163.12
2023-07-25T04:40:27.065Z,163.12
2023-07-25T04:41:27.065Z,146.25
2023-07-25T04:42:27.081Z,163.12
2023-07-25T04:43:27.061Z,180.00
2023-07-25T04:44:27.036Z,230.62
2023-07-25T04:45:27.058Z,174.38
2023-07-25T04:46:27.043Z,196.88
2023-07-25T04:47:27.035Z,230.62
2023-07-25T04:48:26.990Z,213.75
2023-07-25T04:49:26.989Z,208.12
2023-07-25T04:50:26.996Z,208.12
2023-07-25T04:51:26.969Z,208.12
2023-07-25T04:52:26.975Z,208.12
2023-07-25T04:53:26.990Z,213.75
2023-07-25T04:54:26.910Z,230.62
2023-07-25T04:55:26.952Z,219.38
2023-07-25T04:56:26.926Z,230.62
2023-07-25T04:57:26.888Z,241.88
2023-07-25T04:58:26.914Z,264.38
2023-07-25T04:59:26.880Z,247.50
2023-07-25T05:00:29.815Z,258.75
2023-07-25T05:01:26.909Z,264.38
2023-07-25T05:02:26.901Z,230.62
2023-07-25T05:03:27.011Z,360.00
2023-07-25T05:04:26.854Z,258.75
2023-07-25T05:05:26.805Z,337.50
2023-07-25T05:06:26.787Z,376.88
2023-07-25T05:07:26.802Z,174.38
2023-07-25T05:08:26.762Z,168.75
2023-07-25T05:09:26.814Z,208.12
2023-07-25T05:10:26.760Z,230.62
2023-07-25T05:11:26.747Z,253.12
2023-07-25T05:12:26.752Z,213.75
2023-07-25T05:13:26.750Z,230.62
2023-07-25T05:14:26.704Z,202.50
2023-07-25T05:15:26.699Z,219.38
2023-07-25T05:16:26.729Z,202.50
2023-07-25T05:17:26.773Z,241.88
2023-07-25T05:18:26.708Z,230.62
2023-07-25T05:19:26.658Z,236.25
2023-07-25T05:20:26.646Z,241.88
2023-07-25T05:21:26.622Z,219.38
2023-07-25T05:22:26.613Z,247.50
2023-07-25T05:23:26.640Z,281.25
2023-07-25T05:24:26.661Z,298.12
2023-07-25T05:25:26.582Z,241.88
2023-07-25T05:26:26.601Z,247.50
2023-07-25T05:27:26.640Z,247.50
2023-07-25T05:28:26.559Z,253.12
2023-07-25T05:29:26.555Z,292.50
2023-07-25T05:30:26.548Z,421.88
2023-07-25T05:31:26.726Z,455.62
2023-07-25T05:32:26.624Z,286.88
2023-07-25T05:33:26.579Z,331.88
2023-07-25T05:34:26.542Z,315.00
2023-07-25T05:35:26.564Z,388.12
2023-07-25T05:36:26.513Z,843.75
2023-07-25T05:37:26.487Z,478.12
2023-07-25T05:38:26.458Z,945.00
2023-07-25T05:39:26.459Z,922.50
2023-07-25T05:40:26.469Z,900.00
2023-07-25T05:41:26.458Z,348.75
2023-07-25T05:42:26.441Z,1029.38
2023-07-25T05:43:26.431Z,1046.25
2023-07-25T05:44:26.439Z,1096.88
2023-07-25T05:45:26.420Z,1125.00
2023-07-25T05:46:26.367Z,1147.50
2023-07-25T05:47:26.377Z,669.38
2023-07-25T05:48:26.342Z,810.00
2023-07-25T05:49:26.355Z,286.88
2023-07-25T05:50:26.365Z,241.88
2023-07-25T05:51:26.311Z,331.88
2023-07-25T05:52:26.304Z,343.12
2023-07-25T05:53:26.277Z,309.38
2023-07-25T05:54:26.279Z,281.25
2023-07-25T05:55:26.274Z,258.75
2023-07-25T05:56:26.261Z,253.12
2023-07-25T05:57:26.278Z,320.62
2023-07-25T05:58:32.376Z,365.62
2023-07-25T05:59:26.230Z,343.12
2023-07-25T06:00:26.208Z,343.12
2023-07-25T06:01:26.213Z,303.75
2023-07-25T06:02:26.190Z,270.00
2023-07-25T06:03:26.238Z,264.38
2023-07-25T06:04:26.167Z,253.12
2023-07-25T06:05:26.163Z,236.25
2023-07-25T06:06:26.161Z,247.50
2023-07-25T06:07:26.116Z,286.88
2023-07-25T06:08:26.104Z,270.00
2023-07-25T06:09:26.117Z,292.50
2023-07-25T06:10:26.109Z,286.88
2023-07-25T06:11:26.083Z,315.00
2023-07-25T06:12:26.090Z,360.00
2023-07-25T06:13:26.110Z,388.12
2023-07-25T06:14:26.045Z,382.50
2023-07-25T06:15:26.070Z,371.25
2023-07-25T06:16:26.196Z,331.88
2023-07-25T06:17:26.075Z,315.00
2023-07-25T06:18:26.034Z,354.38
2023-07-25T06:19:26.000Z,376.88
2023-07-25T06:20:26.006Z,371.25
2023-07-25T06:21:25.973Z,371.25
2023-07-25T06:22:25.961Z,337.50
2023-07-25T06:23:25.964Z,320.62
2023-07-25T06:24:25.965Z,281.25
2023-07-25T06:25:25.922Z,241.88
2023-07-25T06:26:25.937Z,213.75
2023-07-25T06:27:26.918Z,219.38
2023-07-25T06:28:25.909Z,258.75
2023-07-25T06:29:25.876Z,326.25
2023-07-25T06:30:25.879Z,376.88
2023-07-25T06:31:25.919Z,371.25
2023-07-25T06:32:25.909Z,309.38
2023-07-25T06:33:25.871Z,286.88
2023-07-25T06:34:25.833Z,315.00
2023-07-25T06:35:25.829Z,348.75
2023-07-25T06:36:25.813Z,360.00
2023-07-25T06:37:25.794Z,388.12
2023-07-25T06:38:25.790Z,416.25
2023-07-25T06:39:25.799Z,331.88
2023-07-25T06:40:25.764Z,298.12
2023-07-25T06:41:25.758Z,281.25
2023-07-25T06:42:25.765Z,264.38
2023-07-25T06:43:25.730Z,225.00
2023-07-25T06:44:25.722Z,219.38
2023-07-25T06:45:25.743Z,309.38
2023-07-25T06:46:25.720Z,376.88
2023-07-25T06:47:25.708Z,376.88
2023-07-25T06:48:25.690Z,343.12
2023-07-25T06:49:25.687Z,326.25
2023-07-25T06:50:25.663Z,348.75
2023-07-25T06:51:25.650Z,371.25
2023-07-25T06:52:25.638Z,337.50
2023-07-25T06:53:25.640Z,275.62
2023-07-25T06:54:25.612Z,236.25
2023-07-25T06:55:25.620Z,247.50
2023-07-25T06:56:25.611Z,286.88
2023-07-25T06:57:25.585Z,376.88
2023-07-25T06:58:25.570Z,444.38
2023-07-25T06:59:25.581Z,472.50
2023-07-25T07:00:25.547Z,450.00
2023-07-25T07:01:25.528Z,382.50
2023-07-25T07:02:25.569Z,320.62
2023-07-25T07:03:25.532Z,286.88
2023-07-25T07:04:25.515Z,281.25
2023-07-25T07:05:30.489Z,326.25
2023-07-25T07:06:25.498Z,337.50
2023-07-25T07:07:25.463Z,343.12
2023-07-25T07:08:25.462Z,326.25
2023-07-25T07:09:25.443Z,275.62
2023-07-25T07:10:25.432Z,292.50
2023-07-25T07:11:25.456Z,331.88
2023-07-25T07:12:25.419Z,303.75
2023-07-25T07:13:25.427Z,309.38
2023-07-25T07:14:25.394Z,331.88
2023-07-25T07:15:25.382Z,326.25
2023-07-25T07:16:25.417Z,326.25
2023-07-25T07:17:25.389Z,371.25
2023-07-25T07:18:25.358Z,376.88
2023-07-25T07:19:25.350Z,348.75
2023-07-25T07:20:25.336Z,348.75
2023-07-25T07:21:25.328Z,376.88
2023-07-25T07:22:25.338Z,444.38
2023-07-25T07:23:25.285Z,483.75
2023-07-25T07:24:25.335Z,500.62
2023-07-25T07:25:25.267Z,528.75
2023-07-25T07:26:25.269Z,540.00
2023-07-25T07:27:25.258Z,551.25
2023-07-25T07:28:25.288Z,551.25
2023-07-25T07:29:25.244Z,495.00
2023-07-25T07:30:25.234Z,410.62
2023-07-25T07:31:25.229Z,388.12
2023-07-25T07:32:25.298Z,365.62
2023-07-25T07:33:25.202Z,354.38
2023-07-25T07:34:25.179Z,326.25
2023-07-25T07:35:25.172Z,303.75
2023-07-25T07:36:25.173Z,337.50
2023-07-25T07:37:25.236Z,360.00
2023-07-25T07:38:25.149Z,371.25
2023-07-25T07:39:25.144Z,388.12
2023-07-25T07:40:25.158Z,433.12
2023-07-25T07:41:25.093Z,455.62
2023-07-25T07:42:25.098Z,450.00
2023-07-25T07:43:25.169Z,450.00
2023-07-25T07:44:25.789Z,466.88
2023-07-25T07:45:25.102Z,483.75
2023-07-25T07:46:25.055Z,545.62
2023-07-25T07:47:25.093Z,523.12
2023-07-25T07:48:25.041Z,478.12
2023-07-25T07:49:25.037Z,421.88
2023-07-25T07:50:25.063Z,393.75
2023-07-25T07:51:24.998Z,354.38
2023-07-25T07:52:33.173Z,348.75
2023-07-25T07:53:25.009Z,348.75
2023-07-25T07:54:24.953Z,382.50
2023-07-25T07:55:24.964Z,399.38
2023-07-25T07:56:27.282Z,388.12
2023-07-25T07:57:24.925Z,371.25
2023-07-25T07:58:24.952Z,393.75
2023-07-25T07:59:24.927Z,438.75
2023-07-25T08:00:24.940Z,450.00
2023-07-25T08:01:24.963Z,444.38
2023-07-25T08:02:24.953Z,450.00
2023-07-25T08:03:24.888Z,444.38
2023-07-25T08:04:24.869Z,433.12
2023-07-25T08:05:24.875Z,444.38
2023-07-25T08:06:24.860Z,450.00
2023-07-25T08:07:24.845Z,455.62
2023-07-25T08:08:24.822Z,455.62
2023-07-25T08:09:24.828Z,455.62
2023-07-25T08:10:24.813Z,478.12
2023-07-25T08:11:24.783Z,500.62
2023-07-25T08:12:24.802Z,523.12
2023-07-25T08:13:24.751Z,506.25
2023-07-25T08:14:24.764Z,472.50
2023-07-25T08:15:24.741Z,433.12
2023-07-25T08:16:25.981Z,444.38
2023-07-25T08:17:24.753Z,528.75
2023-07-25T08:18:24.720Z,556.88
2023-07-25T08:19:24.700Z,573.75
2023-07-25T08:20:24.701Z,573.75
2023-07-25T08:21:24.668Z,562.50
2023-07-25T08:22:24.672Z,551.25
2023-07-25T08:23:24.674Z,528.75
2023-07-25T08:24:24.663Z,517.50
2023-07-25T08:25:24.650Z,506.25
2023-07-25T08:26:24.625Z,511.88
2023-07-25T08:27:24.633Z,483.75
2023-07-25T08:28:24.588Z,444.38
2023-07-25T08:29:24.585Z,421.88
2023-07-25T08:30:24.615Z,399.38
2023-07-25T08:31:24.628Z,382.50
2023-07-25T08:32:24.607Z,365.62
2023-07-25T08:33:24.549Z,360.00
2023-07-25T08:34:24.532Z,371.25
2023-07-25T08:35:24.548Z,388.12
2023-07-25T08:36:24.528Z,405.00
2023-07-25T08:37:24.516Z,438.75
2023-07-25T08:38:24.486Z,495.00
2023-07-25T08:39:24.482Z,540.00
2023-07-25T08:40:24.507Z,568.12
2023-07-25T08:41:24.464Z,573.75
2023-07-25T08:42:24.454Z,607.50
2023-07-25T08:43:24.436Z,624.38
2023-07-25T08:44:24.435Z,641.25
2023-07-25T08:45:24.403Z,630.00
2023-07-25T08:46:24.470Z,624.38
2023-07-25T08:47:24.439Z,601.88
2023-07-25T08:48:26.159Z,573.75
2023-07-25T08:49:24.374Z,528.75
2023-07-25T08:50:24.374Z,495.00
2023-07-25T08:51:24.370Z,450.00
2023-07-25T08:52:24.345Z,416.25
2023-07-25T08:53:24.343Z,438.75
2023-07-25T08:54:24.317Z,461.25
2023-07-25T08:55:24.325Z,461.25
2023-07-25T08:56:24.295Z,433.12
2023-07-25T08:57:24.307Z,416.25
2023-07-25T08:58:24.288Z,382.50
2023-07-25T08:59:24.270Z,348.75
2023-07-25T09:00:24.273Z,320.62
2023-07-25T09:01:24.275Z,303.75
2023-07-25T09:02:24.294Z,309.38
2023-07-25T09:03:24.332Z,298.12
2023-07-25T09:04:24.213Z,292.50
2023-07-25T09:05:24.215Z,303.75
2023-07-25T09:06:24.184Z,320.62
2023-07-25T09:07:24.203Z,337.50
2023-07-25T09:08:24.173Z,348.75
2023-07-25T09:09:24.189Z,360.00
2023-07-25T09:10:24.182Z,360.00
2023-07-25T09:11:24.155Z,371.25
2023-07-25T09:12:24.120Z,393.75
2023-07-25T09:13:24.126Z,388.12
2023-07-25T09:14:24.103Z,354.38
2023-07-25T09:15:24.113Z,393.75
2023-07-25T09:16:24.100Z,433.12
2023-07-25T09:17:24.067Z,472.50
2023-07-25T09:18:24.050Z,466.88
2023-07-25T09:19:24.085Z,461.25
2023-07-25T09:20:24.029Z,489.38
2023-07-25T09:21:24.053Z,517.50
2023-07-25T09:22:24.005Z,551.25
2023-07-25T09:23:24.007Z,585.00
2023-07-25T09:24:24.025Z,568.12
2023-07-25T09:25:24.012Z,545.62
2023-07-25T09:26:24.006Z,511.88
2023-07-25T09:27:23.966Z,472.50
2023-07-25T09:28:23.964Z,455.62
2023-07-25T09:29:23.950Z,466.88
2023-07-25T09:30:23.943Z,495.00
2023-07-25T09:31:23.942Z,489.38
2023-07-25T09:32:24.015Z,478.12
2023-07-25T09:33:23.928Z,495.00
2023-07-25T09:34:23.888Z,506.25
2023-07-25T09:35:23.877Z,528.75
2023-07-25T09:36:23.865Z,562.50
2023-07-25T09:37:23.883Z,585.00
2023-07-25T09:38:23.889Z,585.00
2023-07-25T09:39:23.856Z,568.12
2023-07-25T09:40:23.838Z,551.25
2023-07-25T09:41:23.813Z,551.25
2023-07-25T09:42:23.815Z,556.88
2023-07-25T09:43:23.817Z,551.25
2023-07-25T09:44:23.798Z,540.00
2023-07-25T09:45:23.775Z,540.00
2023-07-25T09:46:23.804Z,551.25
2023-07-25T09:47:23.861Z,551.25
2023-07-25T09:48:23.820Z,568.12
2023-07-25T09:49:23.743Z,590.62
2023-07-25T09:50:23.706Z,613.12
2023-07-25T09:51:23.701Z,630.00
2023-07-25T09:52:23.711Z,658.12
2023-07-25T09:53:23.715Z,663.75
2023-07-25T09:54:23.708Z,675.00
2023-07-25T09:55:23.668Z,691.88
2023-07-25T09:56:23.676Z,680.62
2023-07-25T09:57:23.698Z,686.25
2023-07-25T09:58:23.639Z,663.75
2023-07-25T09:59:23.638Z,646.88
2023-07-25T10:00:23.637Z,641.25
2023-07-25T10:01:23.627Z,635.62
2023-07-25T10:02:23.619Z,641.25
2023-07-25T10:03:23.651Z,641.25
2023-07-25T10:04:23.580Z,641.25
2023-07-25T10:05:23.566Z,635.62
2023-07-25T10:06:23.620Z,630.00
2023-07-25T10:07:23.549Z,607.50
2023-07-25T10:08:23.540Z,613.12
2023-07-25T10:09:23.531Z,613.12
2023-07-25T10:10:23.501Z,613.12
2023-07-25T10:11:23.505Z,601.88
2023-07-25T10:12:23.494Z,601.88
2023-07-25T10:13:23.461Z,596.25
2023-07-25T10:14:23.447Z,590.62
2023-07-25T10:15:23.476Z,568.12
2023-07-25T10:16:23.448Z,551.25
2023-07-25T10:17:23.487Z,551.25
2023-07-25T10:18:23.426Z,534.38
2023-07-25T10:19:23.415Z,551.25
2023-07-25T10:20:23.448Z,556.88
2023-07-25T10:21:23.376Z,573.75
2023-07-25T10:22:23.367Z,573.75
2023-07-25T10:23:23.372Z,585.00
2023-07-25T10:24:23.437Z,585.00
2023-07-25T10:25:35.601Z,556.88
2023-07-25T10:26:44.368Z,540.00
2023-07-25T10:27:23.320Z,523.12
2023-07-25T10:28:52.919Z,540.00
2023-07-25T10:29:23.298Z,545.62
2023-07-25T10:30:23.301Z,540.00
2023-07-25T10:31:23.338Z,562.50
2023-07-25T10:32:23.289Z,573.75
2023-07-25T10:33:23.288Z,573.75
2023-07-25T10:34:23.237Z,568.12
2023-07-25T10:35:23.245Z,551.25
2023-07-25T10:36:23.245Z,483.75
2023-07-25T10:37:23.243Z,455.62
2023-07-25T10:38:23.209Z,405.00
2023-07-25T10:39:23.190Z,388.12
2023-07-25T10:40:23.170Z,365.62
2023-07-25T10:41:23.176Z,365.62
2023-07-25T10:42:23.164Z,371.25
2023-07-25T10:43:23.201Z,382.50
2023-07-25T10:44:23.145Z,410.62
2023-07-25T10:45:23.123Z,433.12
2023-07-25T10:46:23.163Z,444.38
2023-07-25T10:47:23.117Z,466.88
2023-07-25T10:48:23.119Z,511.88
2023-07-25T10:49:23.078Z,562.50
2023-07-25T10:50:23.081Z,590.62
2023-07-25T10:51:23.085Z,590.62
2023-07-25T10:52:23.066Z,596.25
2023-07-25T10:53:23.221Z,596.25
2023-07-25T10:54:23.051Z,579.38
2023-07-25T10:55:23.022Z,573.75
2023-07-25T10:56:23.045Z,568.12
2023-07-25T10:57:23.013Z,562.50
2023-07-25T10:58:22.995Z,562.50
2023-07-25T10:59:22.987Z,534.38
2023-07-25T11:00:22.967Z,483.75
2023-07-25T11:01:22.959Z,427.50
2023-07-25T11:02:22.987Z,393.75
2023-07-25T11:03:22.948Z,376.88
2023-07-25T11:04:22.988Z,371.25
2023-07-25T11:05:22.919Z,388.12
2023-07-25T11:06:22.901Z,393.75
2023-07-25T11:07:22.902Z,416.25
2023-07-25T11:08:22.872Z,438.75
2023-07-25T11:09:22.886Z,450.00
2023-07-25T11:10:22.881Z,444.38
2023-07-25T11:11:22.846Z,455.62
2023-07-25T11:12:22.855Z,450.00
2023-07-25T11:13:22.851Z,427.50
2023-07-25T11:14:22.834Z,382.50
2023-07-25T11:15:36.445Z,348.75
2023-07-25T11:16:22.854Z,331.88
2023-07-25T11:17:22.814Z,331.88
2023-07-25T11:18:22.787Z,315.00
2023-07-25T11:19:22.811Z,303.75
2023-07-25T11:20:22.776Z,315.00
2023-07-25T11:21:22.775Z,320.62
2023-07-25T11:22:22.736Z,320.62
2023-07-25T11:23:22.740Z,326.25
2023-07-25T11:24:22.896Z,331.88
2023-07-25T11:25:22.713Z,320.62
2023-07-25T11:26:22.736Z,303.75
2023-07-25T11:27:22.692Z,298.12
2023-07-25T11:28:22.706Z,303.75
2023-07-25T11:29:22.675Z,303.75
2023-07-25T11:30:22.661Z,292.50
2023-07-25T11:31:22.801Z,303.75
2023-07-25T11:32:22.715Z,331.88
2023-07-25T11:33:22.662Z,298.12
2023-07-25T11:34:22.638Z,292.50
2023-07-25T11:35:22.601Z,292.50
2023-07-25T11:36:22.612Z,303.75
2023-07-25T11:37:22.590Z,292.50
2023-07-25T11:38:22.570Z,326.25
2023-07-25T11:39:22.548Z,354.38
2023-07-25T11:40:22.590Z,365.62
2023-07-25T11:41:22.575Z,393.75
2023-07-25T11:42:22.557Z,427.50
2023-07-25T11:43:22.541Z,455.62
2023-07-25T11:44:22.523Z,461.25
2023-07-25T11:45:22.490Z,461.25
2023-07-25T11:46:22.561Z,472.50
2023-07-25T11:47:22.473Z,455.62
2023-07-25T11:48:22.480Z,444.38
2023-07-25T11:49:35.937Z,438.75
2023-07-25T11:50:27.518Z,444.38
2023-07-25T11:51:22.493Z,433.12
2023-07-25T11:52:22.429Z,438.75
2023-07-25T11:53:22.463Z,416.25
2023-07-25T11:54:22.412Z,399.38
2023-07-25T11:55:22.438Z,376.88
2023-07-25T11:56:22.410Z,360.00
2023-07-25T11:57:22.402Z,343.12
2023-07-25T11:58:22.411Z,331.88
2023-07-25T11:59:22.356Z,331.88
2023-07-25T12:00:22.388Z,337.50
2023-07-25T12:01:22.411Z,337.50
2023-07-25T12:02:30.132Z,326.25
2023-07-25T12:03:22.324Z,309.38
2023-07-25T12:04:22.391Z,303.75
2023-07-25T12:05:28.908Z,309.38
2023-07-25T12:06:28.884Z,326.25
2023-07-25T12:07:22.560Z,365.62
2023-07-25T12:08:22.284Z,382.50
2023-07-25T12:09:28.839Z,393.75
2023-07-25T12:10:22.247Z,399.38
2023-07-25T12:11:22.244Z,416.25
2023-07-25T12:12:22.250Z,455.62
2023-07-25T12:13:22.226Z,466.88
2023-07-25T12:14:22.195Z,461.25
2023-07-25T12:15:22.195Z,472.50
2023-07-25T12:16:22.194Z,455.62
2023-07-25T12:17:22.203Z,399.38
2023-07-25T12:18:22.184Z,354.38
2023-07-25T12:19:22.175Z,337.50
2023-07-25T12:20:22.162Z,331.88
2023-07-25T12:21:22.128Z,343.12
2023-07-25T12:22:22.141Z,348.75
2023-07-25T12:23:22.117Z,348.75
2023-07-25T12:24:22.125Z,343.12
2023-07-25T12:25:22.091Z,337.50
2023-07-25T12:26:22.107Z,331.88
2023-07-25T12:27:22.101Z,331.88
2023-07-25T12:28:22.199Z,315.00
2023-07-25T12:29:22.039Z,320.62
2023-07-25T12:30:22.020Z,343.12
2023-07-25T12:31:22.016Z,348.75
2023-07-25T12:32:22.052Z,354.38
2023-07-25T12:33:22.066Z,337.50
2023-07-25T12:34:22.029Z,315.00
2023-07-25T12:35:21.955Z,315.00
2023-07-25T12:36:21.978Z,348.75
2023-07-25T12:37:21.974Z,382.50
2023-07-25T12:38:21.934Z,399.38
2023-07-25T12:39:21.922Z,399.38
2023-07-25T12:40:21.935Z,405.00
2023-07-25T12:41:21.891Z,405.00